createdAt,value
2023-02-19T00:02:17.821Z,100.00
2023-02-19T00:04:45.695Z,100.00
2023-02-19T00:07:13.570Z,100.00
2023-02-19T00:09:41.338Z,100.00
2023-02-19T00:12:09.128Z,100.00
2023-02-19T00:14:40.114Z,100.00
2023-02-19T00:17:08.260Z,100.00
2023-02-19T00:19:39.238Z,100.00
2023-02-19T00:22:07.096Z,100.00
2023-02-19T00:24:35.180Z,100.00
2023-02-19T00:27:03.291Z,100.00
2023-02-19T00:29:31.622Z,100.00
2023-02-19T00:32:00.051Z,100.00
2023-02-19T00:34:27.904Z,100.00
2023-02-19T00:36:55.723Z,100.00
2023-02-19T00:39:23.926Z,100.00
2023-02-19T00:41:52.591Z,100.00
2023-02-19T00:44:21.029Z,100.00
2023-02-19T00:46:49.551Z,100.00
2023-02-19T00:49:21.312Z,100.00
2023-02-19T00:51:51.774Z,100.00
2023-02-19T00:54:22.619Z,100.00
2023-02-19T00:56:51.253Z,100.00
2023-02-19T00:59:19.706Z,100.00
2023-02-19T01:01:48.080Z,100.00
2023-02-19T01:04:16.768Z,100.00
2023-02-19T01:06:45.013Z,100.00
2023-02-19T01:09:13.966Z,100.00
2023-02-19T01:11:42.391Z,100.00
2023-02-19T01:14:11.245Z,100.00
2023-02-19T01:16:40.432Z,100.00
2023-02-19T01:19:08.496Z,100.00
2023-02-19T01:21:36.692Z,100.00
2023-02-19T01:24:05.032Z,100.00
2023-02-19T01:26:34.042Z,100.00
2023-02-19T01:29:04.360Z,100.00
2023-02-19T01:31:32.506Z,100.00
2023-02-19T01:34:03.158Z,100.00
2023-02-19T01:36:34.148Z,100.00
2023-02-19T01:39:05.321Z,100.00
2023-02-19T01:41:39.250Z,100.00
2023-02-19T01:44:13.212Z,100.00
2023-02-19T01:46:42.482Z,100.00
2023-02-19T01:49:21.736Z,100.00
2023-02-19T01:52:14.821Z,100.00
2023-02-19T01:54:45.860Z,100.00
2023-02-19T01:57:21.901Z,100.00
2023-02-19T01:59:55.580Z,100.00
2023-02-19T02:02:25.449Z,100.00
2023-02-19T02:04:54.159Z,100.00
2023-02-19T02:07:42.204Z,100.00
2023-02-19T02:10:22.692Z,100.00
2023-02-19T02:12:53.296Z,100.00
2023-02-19T02:15:22.778Z,100.00
2023-02-19T02:17:59.906Z,100.00
2023-02-19T02:20:44.160Z,100.00
2023-02-19T02:23:55.726Z,100.00
2023-02-19T02:26:44.037Z,100.00
2023-02-19T02:29:26.122Z,100.00
2023-02-19T02:32:10.871Z,100.00
2023-02-19T02:34:51.412Z,100.00
2023-02-19T02:37:20.302Z,100.00
2023-02-19T02:39:50.098Z,100.00
2023-02-19T02:42:30.294Z,100.00
2023-02-19T02:45:36.505Z,100.00
2023-02-19T02:48:47.444Z,100.00
2023-02-19T02:51:26.017Z,100.00
2023-02-19T02:54:30.111Z,100.00
2023-02-19T02:57:01.359Z,100.00
2023-02-19T02:59:45.104Z,100.00
2023-02-19T03:02:21.514Z,100.00
2023-02-19T03:05:27.450Z,100.00
2023-02-19T03:08:19.164Z,100.00
2023-02-19T03:10:50.026Z,100.00
2023-02-19T03:13:44.125Z,100.00
2023-02-19T03:16:47.640Z,100.00
2023-02-19T03:19:19.533Z,100.00
2023-02-19T03:22:00.395Z,100.00
2023-02-19T03:24:54.432Z,100.00
2023-02-19T03:27:25.481Z,100.00
2023-02-19T03:29:59.087Z,100.00
2023-02-19T03:32:29.914Z,100.00
2023-02-19T03:35:14.053Z,100.00
2023-02-19T03:37:47.340Z,100.00
2023-02-19T03:40:17.079Z,100.00
2023-02-19T03:42:56.156Z,100.00
2023-02-19T03:45:54.452Z,100.00
2023-02-19T03:48:35.702Z,100.00
2023-02-19T03:51:27.740Z,100.00
2023-02-19T03:53:56.248Z,100.00
2023-02-19T03:56:37.464Z,100.00
2023-02-19T03:59:20.619Z,100.00
2023-02-19T04:02:01.488Z,100.00
2023-02-19T04:04:37.599Z,100.00
2023-02-19T04:07:06.173Z,100.00
2023-02-19T04:09:40.475Z,100.00
2023-02-19T04:12:14.563Z,100.00
2023-02-19T04:14:49.371Z,100.00
2023-02-19T04:17:26.835Z,100.00
2023-02-19T04:19:56.684Z,100.00
2023-02-19T04:22:25.616Z,100.00
2023-02-19T04:24:55.707Z,100.00
2023-02-19T04:27:23.636Z,100.00
2023-02-19T04:29:51.462Z,100.00
2023-02-19T04:32:19.358Z,100.00
2023-02-19T04:34:47.132Z,100.00
2023-02-19T04:37:15.050Z,100.00
2023-02-19T04:39:43.012Z,100.00
2023-02-19T04:42:11.345Z,100.00
2023-02-19T04:44:39.130Z,100.00
2023-02-19T04:47:06.952Z,100.00
2023-02-19T04:49:34.849Z,100.00
2023-02-19T04:52:02.677Z,100.00
2023-02-19T04:54:30.432Z,100.00
2023-02-19T04:56:58.207Z,100.00
2023-02-19T04:59:26.432Z,100.00
2023-02-19T05:01:54.352Z,100.00
2023-02-19T05:04:22.330Z,100.00
2023-02-19T05:06:50.576Z,100.00
2023-02-19T05:09:18.598Z,100.00
2023-02-19T05:11:46.671Z,100.00
2023-02-19T05:14:14.449Z,100.00
2023-02-19T05:16:42.264Z,100.00
2023-02-19T05:19:13.069Z,100.00
2023-02-19T05:21:41.132Z,100.00
2023-02-19T05:24:09.502Z,100.00
2023-02-19T05:26:37.369Z,100.00
2023-02-19T05:29:05.172Z,100.00
2023-02-19T05:31:34.059Z,100.00
2023-02-19T05:34:01.971Z,100.00
2023-02-19T05:36:29.920Z,100.00
2023-02-19T05:38:58.292Z,100.00
2023-02-19T05:41:28.895Z,100.00
2023-02-19T05:43:57.875Z,100.00
2023-02-19T05:46:29.483Z,100.00
2023-02-19T05:49:00.713Z,100.00
2023-02-19T05:51:28.698Z,100.00
2023-02-19T05:53:57.327Z,100.00
2023-02-19T05:56:39.997Z,100.00
2023-02-19T05:59:19.900Z,100.00
2023-02-19T06:01:49.655Z,100.00
2023-02-19T06:04:19.354Z,100.00
2023-02-19T06:06:48.337Z,100.00
2023-02-19T06:09:16.292Z,100.00
2023-02-19T06:11:44.341Z,100.00
2023-02-19T06:14:14.207Z,100.00
2023-02-19T06:16:42.319Z,100.00
2023-02-19T06:19:10.690Z,100.00
2023-02-19T06:21:38.520Z,100.00
2023-02-19T06:24:08.085Z,100.00
2023-02-19T06:26:36.003Z,100.00
2023-02-19T06:29:04.495Z,100.00
2023-02-19T06:31:32.686Z,100.00
2023-02-19T06:34:04.313Z,100.00
2023-02-19T06:36:32.150Z,100.00
2023-02-19T06:39:01.146Z,100.00
2023-02-19T06:41:29.032Z,100.00
2023-02-19T06:44:00.134Z,100.00
2023-02-19T06:46:28.081Z,100.00
2023-02-19T06:48:57.110Z,100.00
2023-02-19T06:51:27.296Z,100.00
2023-02-19T06:53:56.142Z,100.00
2023-02-19T06:56:31.775Z,100.00
2023-02-19T06:59:02.331Z,100.00
2023-02-19T07:01:33.452Z,100.00
2023-02-19T07:04:01.682Z,100.00
2023-02-19T07:06:30.323Z,100.00
2023-02-19T07:08:59.238Z,100.00
2023-02-19T07:11:31.055Z,100.00
2023-02-19T07:14:00.873Z,100.00
2023-02-19T07:16:29.310Z,100.00
2023-02-19T07:18:58.881Z,100.00
2023-02-19T07:21:27.758Z,100.00
2023-02-19T07:23:55.929Z,100.00
2023-02-19T07:26:24.296Z,100.00
2023-02-19T07:28:52.746Z,100.00
2023-02-19T07:31:23.093Z,100.00
2023-02-19T07:33:51.638Z,100.00
2023-02-19T07:36:20.566Z,100.00
2023-02-19T07:38:55.360Z,100.00
2023-02-19T07:41:24.508Z,100.00
2023-02-19T07:43:53.740Z,100.00
2023-02-19T07:46:22.589Z,100.00
2023-02-19T07:48:50.646Z,100.00
2023-02-19T07:51:19.751Z,100.00
2023-02-19T07:53:50.465Z,100.00
2023-02-19T07:56:19.938Z,100.00
2023-02-19T07:58:48.028Z,100.00
2023-02-19T08:01:18.906Z,100.00
2023-02-19T08:03:48.896Z,100.00
2023-02-19T08:06:18.174Z,100.00
2023-02-19T08:08:45.962Z,100.00
2023-02-19T08:11:32.335Z,100.00
2023-02-19T08:14:00.277Z,100.00
2023-02-19T08:16:41.081Z,100.00
2023-02-19T08:19:10.851Z,100.00
2023-02-19T08:21:38.691Z,100.00
2023-02-19T08:24:06.623Z,100.00
2023-02-19T08:26:35.030Z,100.00
2023-02-19T08:29:04.362Z,100.00
2023-02-19T08:31:33.741Z,100.00
2023-02-19T08:34:01.677Z,100.00
2023-02-19T08:36:29.704Z,100.00
2023-02-19T08:38:57.621Z,100.00
2023-02-19T08:41:25.554Z,100.00
2023-02-19T08:43:53.342Z,100.00
2023-02-19T08:46:22.935Z,100.00
2023-02-19T08:48:51.203Z,100.00
2023-02-19T08:51:19.329Z,100.00
2023-02-19T08:53:47.161Z,100.00
2023-02-19T08:56:17.529Z,100.00
2023-02-19T08:58:45.903Z,100.00
2023-02-19T09:01:17.988Z,100.00
2023-02-19T09:03:46.246Z,100.00
2023-02-19T09:06:19.860Z,100.00
2023-02-19T09:08:48.039Z,100.00
2023-02-19T09:11:15.903Z,100.00
2023-02-19T09:13:44.260Z,100.00
2023-02-19T09:16:12.336Z,100.00
2023-02-19T09:18:40.357Z,100.00
2023-02-19T09:21:08.323Z,100.00
2023-02-19T09:23:37.202Z,100.00
2023-02-19T09:26:09.552Z,100.00
2023-02-19T09:28:39.842Z,100.00
2023-02-19T09:31:13.149Z,100.00
2023-02-19T09:33:48.712Z,100.00
2023-02-19T09:36:18.782Z,100.00
2023-02-19T09:38:46.635Z,100.00
2023-02-19T09:41:22.626Z,100.00
2023-02-19T09:43:50.857Z,100.00
2023-02-19T09:46:24.639Z,100.00
2023-02-19T09:48:55.711Z,100.00
2023-02-19T09:51:28.861Z,100.00
2023-02-19T09:53:58.075Z,100.00
2023-02-19T09:56:27.683Z,100.00
2023-02-19T09:58:58.353Z,100.00
2023-02-19T10:01:33.599Z,100.00
2023-02-19T10:04:01.567Z,100.00
2023-02-19T10:06:30.530Z,100.00
2023-02-19T10:09:22.410Z,100.00
2023-02-19T10:11:51.904Z,99.73
2023-02-19T10:14:34.075Z,99.83
2023-02-19T10:17:05.989Z,98.55
2023-02-19T10:19:34.961Z,100.00
2023-02-19T10:22:04.557Z,97.62
2023-02-19T10:24:34.080Z,97.53
2023-02-19T10:27:01.954Z,96.54
2023-02-19T10:29:29.803Z,96.33
2023-02-19T10:32:14.041Z,98.92
2023-02-19T10:34:42.467Z,99.54
2023-02-19T10:37:15.717Z,100.00
2023-02-19T10:39:47.139Z,100.00
2023-02-19T10:42:24.088Z,100.00
2023-02-19T10:45:01.938Z,97.57
2023-02-19T10:47:33.346Z,100.00
2023-02-19T10:50:04.306Z,96.92
2023-02-19T10:52:36.349Z,97.96
2023-02-19T10:55:28.493Z,100.00
2023-02-19T10:57:57.839Z,96.88
2023-02-19T11:00:30.620Z,97.21
2023-02-19T11:03:22.396Z,98.00
2023-02-19T11:06:08.502Z,97.56
2023-02-19T11:08:51.412Z,96.54
2023-02-19T11:11:34.878Z,96.01
2023-02-19T11:14:24.925Z,97.65
2023-02-19T11:16:56.634Z,97.21
2023-02-19T11:19:26.679Z,96.76
2023-02-19T11:21:55.768Z,96.62
2023-02-19T11:24:31.624Z,95.81
2023-02-19T11:27:01.096Z,94.25
2023-02-19T11:29:34.894Z,92.68
2023-02-19T11:32:21.049Z,94.53
2023-02-19T11:34:49.201Z,93.80
2023-02-19T11:37:21.998Z,93.95
2023-02-19T11:39:52.684Z,94.89
2023-02-19T11:42:39.394Z,95.07
2023-02-19T11:45:19.044Z,95.80
2023-02-19T11:48:05.169Z,95.17
2023-02-19T11:50:43.034Z,95.74
2023-02-19T11:53:29.089Z,94.93
2023-02-19T11:56:09.143Z,93.88
2023-02-19T11:58:50.633Z,92.91
2023-02-19T12:01:45.893Z,94.92
2023-02-19T12:04:44.463Z,93.27
2023-02-19T12:07:51.475Z,95.14
2023-02-19T12:10:37.706Z,95.08
2023-02-19T12:13:08.583Z,91.16
2023-02-19T12:15:45.295Z,91.50
2023-02-19T12:18:41.116Z,93.40
2023-02-19T12:21:32.871Z,92.25
2023-02-19T12:24:15.557Z,92.38
2023-02-19T12:27:25.424Z,90.64
2023-02-19T12:30:12.861Z,90.25
2023-02-19T12:33:22.121Z,88.47
2023-02-19T12:35:49.924Z,89.64
2023-02-19T12:38:40.089Z,90.47
2023-02-19T12:41:27.503Z,90.31
2023-02-19T12:44:34.937Z,88.66
2023-02-19T12:47:06.888Z,89.19
2023-02-19T12:49:47.063Z,90.01
2023-02-19T12:52:25.968Z,89.72
2023-02-19T12:55:17.988Z,89.05
2023-02-19T12:57:46.994Z,87.10
2023-02-19T13:01:00.162Z,86.54
2023-02-19T13:03:38.376Z,86.70
2023-02-19T13:06:42.936Z,87.10
2023-02-19T13:09:28.398Z,87.43
2023-02-19T13:12:03.483Z,88.50
2023-02-19T13:14:38.012Z,87.39
2023-02-19T13:17:28.453Z,87.39
2023-02-19T13:20:02.759Z,88.57
2023-02-19T13:23:02.050Z,88.58
2023-02-19T13:26:04.448Z,86.49
2023-02-19T13:28:50.768Z,86.72
2023-02-19T13:31:29.917Z,86.28
2023-02-19T13:34:24.033Z,84.64
2023-02-19T13:36:53.275Z,85.41
2023-02-19T13:39:24.806Z,84.53
2023-02-19T13:41:56.020Z,84.80
2023-02-19T13:44:27.810Z,85.20
2023-02-19T13:46:56.158Z,84.85
2023-02-19T13:49:31.702Z,86.71
2023-02-19T13:52:30.532Z,86.13
2023-02-19T13:55:35.891Z,85.56
2023-02-19T13:58:41.785Z,85.61
2023-02-19T14:01:14.092Z,86.68
2023-02-19T14:03:43.830Z,85.99
2023-02-19T14:06:11.956Z,87.91
2023-02-19T14:08:46.227Z,87.41
2023-02-19T14:11:16.201Z,86.68
2023-02-19T14:13:50.047Z,86.38
2023-02-19T14:16:51.956Z,86.50
2023-02-19T14:19:41.619Z,86.91
2023-02-19T14:22:47.548Z,86.86
2023-02-19T14:25:27.964Z,85.57
2023-02-19T14:28:01.877Z,86.80
2023-02-19T14:30:31.907Z,85.92
2023-02-19T14:33:10.544Z,86.43
2023-02-19T14:35:45.520Z,87.55
2023-02-19T14:38:26.912Z,87.07
2023-02-19T14:40:56.249Z,86.87
2023-02-19T14:43:26.178Z,86.42
2023-02-19T14:45:59.344Z,88.45
2023-02-19T14:48:33.510Z,87.48
2023-02-19T14:51:04.618Z,87.27
2023-02-19T14:53:38.109Z,88.25
2023-02-19T14:56:17.013Z,87.76
2023-02-19T14:58:45.103Z,88.54
2023-02-19T15:01:29.104Z,88.06
2023-02-19T15:03:57.485Z,87.64
2023-02-19T15:06:27.324Z,88.02
2023-02-19T15:09:00.548Z,88.51
2023-02-19T15:11:32.169Z,88.47
2023-02-19T15:14:04.482Z,89.21
2023-02-19T15:16:35.802Z,88.32
2023-02-19T15:19:12.065Z,89.48
2023-02-19T15:21:46.841Z,89.49
2023-02-19T15:24:17.409Z,90.16
2023-02-19T15:26:51.037Z,89.99
2023-02-19T15:29:22.336Z,91.11
2023-02-19T15:31:54.012Z,92.22
2023-02-19T15:34:27.966Z,93.00
2023-02-19T15:36:58.865Z,93.66
2023-02-19T15:39:41.927Z,93.68
2023-02-19T15:42:19.498Z,94.45
2023-02-19T15:45:04.480Z,93.94
2023-02-19T15:47:51.923Z,93.78
2023-02-19T15:50:27.634Z,94.30
2023-02-19T15:53:35.213Z,95.40
2023-02-19T15:56:10.712Z,95.28
2023-02-19T15:58:50.946Z,96.60
2023-02-19T16:01:32.450Z,96.35
2023-02-19T16:04:01.063Z,97.63
2023-02-19T16:06:29.761Z,99.62
2023-02-19T16:09:04.129Z,99.80
2023-02-19T16:11:50.420Z,99.87
2023-02-19T16:14:22.656Z,99.71
2023-02-19T16:17:11.122Z,100.00
2023-02-19T16:20:00.889Z,100.00
2023-02-19T16:22:31.373Z,100.00
2023-02-19T16:25:04.277Z,100.00
2023-02-19T16:27:35.362Z,100.00
2023-02-19T16:30:25.819Z,100.00
2023-02-19T16:33:35.644Z,100.00
2023-02-19T16:36:31.226Z,100.00
2023-02-19T16:39:20.766Z,100.00
2023-02-19T16:41:49.085Z,98.79
2023-02-19T16:44:56.758Z,98.47
2023-02-19T16:47:37.139Z,97.32
2023-02-19T16:50:19.367Z,96.21
2023-02-19T16:53:03.006Z,95.28
2023-02-19T16:55:35.511Z,95.80
2023-02-19T16:58:03.606Z,95.39
2023-02-19T17:00:32.464Z,95.34
2023-02-19T17:03:09.663Z,95.82
2023-02-19T17:05:40.182Z,95.77
2023-02-19T17:08:31.879Z,95.51
2023-02-19T17:11:03.340Z,96.31
2023-02-19T17:13:31.625Z,95.64
2023-02-19T17:16:00.089Z,95.12
2023-02-19T17:18:28.774Z,95.38
2023-02-19T17:21:11.173Z,95.32
2023-02-19T17:23:39.339Z,96.03
2023-02-19T17:26:09.715Z,96.45
2023-02-19T17:28:41.466Z,96.36
2023-02-19T17:31:14.706Z,96.16
2023-02-19T17:33:43.586Z,95.18
2023-02-19T17:36:24.008Z,94.74
2023-02-19T17:38:51.927Z,94.27
2023-02-19T17:41:19.877Z,94.52
2023-02-19T17:43:48.334Z,93.66
2023-02-19T17:46:21.714Z,93.12
2023-02-19T17:48:50.083Z,93.24
2023-02-19T17:51:17.978Z,92.84
2023-02-19T17:53:46.812Z,92.19
2023-02-19T17:56:23.133Z,93.33
2023-02-19T17:58:51.457Z,92.79
2023-02-19T18:01:19.552Z,92.12
2023-02-19T18:03:47.584Z,92.29
2023-02-19T18:06:17.609Z,93.02
2023-02-19T18:08:52.779Z,92.69
2023-02-19T18:11:24.611Z,91.89
2023-02-19T18:13:52.876Z,91.91
2023-02-19T18:16:21.359Z,91.76
2023-02-19T18:18:49.191Z,91.25
2023-02-19T18:21:17.252Z,91.64
2023-02-19T18:23:46.557Z,90.99
2023-02-19T18:26:19.768Z,91.67
2023-02-19T18:28:47.787Z,91.97
2023-02-19T18:31:16.073Z,91.34
2023-02-19T18:33:44.381Z,91.25
2023-02-19T18:36:13.228Z,91.17
2023-02-19T18:38:41.228Z,91.23
2023-02-19T18:41:13.808Z,92.23
2023-02-19T18:43:42.217Z,92.30
2023-02-19T18:46:11.533Z,91.39
2023-02-19T18:48:39.806Z,91.92
2023-02-19T18:51:11.727Z,91.21
2023-02-19T18:53:42.928Z,91.78
2023-02-19T18:56:12.356Z,91.73
2023-02-19T18:58:40.521Z,91.20
2023-02-19T19:01:09.777Z,91.83
2023-02-19T19:03:37.734Z,91.63
2023-02-19T19:06:06.011Z,91.90
2023-02-19T19:08:34.347Z,91.47
2023-02-19T19:11:02.386Z,91.20
2023-02-19T19:13:30.373Z,92.11
2023-02-19T19:15:58.325Z,91.61
2023-02-19T19:18:28.185Z,92.42
2023-02-19T19:21:01.833Z,92.02
2023-02-19T19:23:29.642Z,93.14
2023-02-19T19:25:58.350Z,92.99
2023-02-19T19:28:26.282Z,91.99
2023-02-19T19:30:54.282Z,91.27
2023-02-19T19:33:22.250Z,90.99
2023-02-19T19:35:52.798Z,91.05
2023-02-19T19:38:20.689Z,91.61
2023-02-19T19:40:48.587Z,92.69
2023-02-19T19:43:16.556Z,92.32
2023-02-19T19:45:44.636Z,91.67
2023-02-19T19:48:12.550Z,91.73
2023-02-19T19:50:45.708Z,91.30
2023-02-19T19:53:14.352Z,91.14
2023-02-19T19:55:42.234Z,92.24
2023-02-19T19:58:10.194Z,91.40
2023-02-19T20:00:38.154Z,91.09
2023-02-19T20:03:07.200Z,91.14
2023-02-19T20:05:35.219Z,90.85
2023-02-19T20:08:03.090Z,90.34
2023-02-19T20:10:32.635Z,90.23
2023-02-19T20:13:00.650Z,90.21
2023-02-19T20:15:28.721Z,90.55
2023-02-19T20:17:56.938Z,90.97
2023-02-19T20:20:25.058Z,90.70
2023-02-19T20:22:53.755Z,90.68
2023-02-19T20:25:23.262Z,90.40
2023-02-19T20:27:52.778Z,90.68
2023-02-19T20:30:23.738Z,91.81
2023-02-19T20:32:52.716Z,91.10
2023-02-19T20:35:22.242Z,91.37
2023-02-19T20:37:51.492Z,91.94
2023-02-19T20:40:20.134Z,91.72
2023-02-19T20:42:47.978Z,91.70
2023-02-19T20:45:17.068Z,91.77
2023-02-19T20:47:45.134Z,92.72
2023-02-19T20:50:13.197Z,91.77
2023-02-19T20:52:43.621Z,91.39
2023-02-19T20:55:11.749Z,91.70
2023-02-19T20:57:39.813Z,92.44
2023-02-19T21:00:12.186Z,92.17
2023-02-19T21:02:40.230Z,92.04
2023-02-19T21:05:09.998Z,91.80
2023-02-19T21:07:40.854Z,91.61
2023-02-19T21:10:12.372Z,92.06
2023-02-19T21:12:40.932Z,92.13
2023-02-19T21:15:09.348Z,92.25
2023-02-19T21:17:37.259Z,91.92
2023-02-19T21:20:05.574Z,92.74
2023-02-19T21:22:33.398Z,92.28
2023-02-19T21:25:01.278Z,92.20
2023-02-19T21:27:29.370Z,91.52
2023-02-19T21:29:57.192Z,91.42
2023-02-19T21:32:25.269Z,92.75
2023-02-19T21:34:53.405Z,93.79
2023-02-19T21:37:21.262Z,95.75
2023-02-19T21:39:49.431Z,96.04
2023-02-19T21:42:17.337Z,96.24
2023-02-19T21:44:45.175Z,95.91
2023-02-19T21:47:13.089Z,96.29
2023-02-19T21:49:41.977Z,95.87
2023-02-19T21:52:11.480Z,95.29
2023-02-19T21:54:39.305Z,95.87
2023-02-19T21:57:07.134Z,96.58
2023-02-19T21:59:34.986Z,97.09
2023-02-19T22:02:02.800Z,97.07
2023-02-19T22:04:30.758Z,96.68
2023-02-19T22:06:58.746Z,96.07
2023-02-19T22:09:28.065Z,95.94
2023-02-19T22:12:00.125Z,95.65
2023-02-19T22:14:28.632Z,95.39
2023-02-19T22:16:56.569Z,96.78
2023-02-19T22:19:27.910Z,97.06
2023-02-19T22:21:55.774Z,98.21
2023-02-19T22:24:23.601Z,99.13
2023-02-19T22:26:56.450Z,99.09
2023-02-19T22:29:24.512Z,99.38
2023-02-19T22:31:53.087Z,98.71
2023-02-19T22:34:22.113Z,97.95
2023-02-19T22:36:50.442Z,98.16
2023-02-19T22:39:27.363Z,97.88
2023-02-19T22:41:55.176Z,97.75
2023-02-19T22:44:23.033Z,98.16
2023-02-19T22:46:56.181Z,98.77
2023-02-19T22:49:24.245Z,98.56
2023-02-19T22:52:00.490Z,98.21
2023-02-19T22:54:28.477Z,98.35
2023-02-19T22:56:56.364Z,98.75
2023-02-19T22:59:24.282Z,98.11
2023-02-19T23:01:52.954Z,97.79
2023-02-19T23:04:22.120Z,98.75
2023-02-19T23:06:50.594Z,97.79
2023-02-19T23:09:25.236Z,98.33
2023-02-19T23:11:53.799Z,96.34
2023-02-19T23:14:22.419Z,96.44
2023-02-19T23:16:50.238Z,97.54
2023-02-19T23:19:18.077Z,97.96
2023-02-19T23:21:46.250Z,98.96
2023-02-19T23:24:14.811Z,99.46
2023-02-19T23:26:50.157Z,99.39
2023-02-19T23:29:21.043Z,98.51
2023-02-19T23:31:49.210Z,98.80
2023-02-19T23:34:17.450Z,98.84
2023-02-19T23:36:49.821Z,98.60
2023-02-19T23:39:20.403Z,98.18
2023-02-19T23:41:57.300Z,98.41
2023-02-19T23:44:25.854Z,98.58
2023-02-19T23:46:53.631Z,97.96
2023-02-19T23:49:22.191Z,98.66
2023-02-19T23:51:50.014Z,98.79
2023-02-19T23:54:17.926Z,98.37
2023-02-19T23:56:45.788Z,98.69
2023-02-19T23:59:13.723Z,98.41
